My Profile
  1. Member Settings
  2. My Devices
  3. Sign Out
        More Settings
      Elev 1687 ft, 28.505 °S 27.933 °E

      Litoaneng, LS

      Summary

      Temperature (°F)MaxAverageMin
      Max Temperature8576.456
      Avg Temperature74.1766.1854.17
      Min Temperature6454.3345
      Precipitation (in)MaxAverageMinSum
      Precipitation0000
      Dew Point (°F)MaxAverageMin
      Dew Point56.7148.2238.57
      Wind (mph)MaxAverageMin
      Wind1810.772
      Gust Wind2810.612
      Sea Level Pressure (in)MaxAverageMin
      Sea Level Pressure24.9124.7924.69

      Daily Observations

      DateTemp High/LowDew Pt High/LowHumidityWindMax WindWind GustPressurePrecip.Condition
      11/1/2020 57 °F / 52 °F 51 °F / 45 °F 82 % 13 mph - 24.85 in 0 in
      11/2/2020 71 °F / 50 °F 47 °F / 42 °F 58 % 9 mph - 24.81 in 0 in
      11/3/2020 78 °F / 47 °F 50 °F / 43 °F 56 % 7 mph - 24.83 in 0 in
      11/4/2020 78 °F / 54 °F 55 °F / 48 °F 60 % 10 mph - 24.8 in 0 in
      11/5/2020 72 °F / 56 °F 55 °F / 51 °F 77 % 18 mph - 24.71 in 0 in
      11/6/2020 78 °F / 50 °F 55 °F / 40 °F 55 % 10 mph - 24.71 in 0 in
      11/7/2020 85 °F / 50 °F 50 °F / 40 °F 43 % 12 mph - 24.75 in 0 in
      11/8/2020 56 °F / 56 °F 47 °F / 47 °F 72 % 2 mph - 24.79 in 0 in
      11/9/2020 80 °F / 61 °F 56 °F / 49 °F 63 % 18 mph - 24.88 in 0 in
      11/10/2020 65 °F / 55 °F 57 °F / 51 °F 78 % 13 mph - 24.86 in 0 in
      11/11/2020 70 °F / 53 °F 53 °F / 48 °F 65 % 8 mph - 24.88 in 0 in
      11/12/2020 77 °F / 53 °F 52 °F / 42 °F 54 % 8 mph - 24.91 in 0 in
      11/13/2020 79 °F / 54 °F 53 °F / 46 °F 55 % 6 mph - 24.9 in 0 in
      11/14/2020 82 °F / 54 °F 52 °F / 42 °F 44 % 8 mph - 24.81 in 0 in
      11/15/2020 83 °F / 53 °F 51 °F / 38 °F 39 % 14 mph - 24.77 in 0 in
      11/16/2020 81 °F / 59 °F 54 °F / 43 °F 41 % 10 mph - 24.76 in 0 in
      11/17/2020 83 °F / 64 °F 53 °F / 44 °F 45 % 14 mph - 24.74 in 0 in
      11/18/2020 85 °F / 57 °F 54 °F / 47 °F 59 % 12 mph - 24.7 in 0 in
      11/19/2020 82 °F / 57 °F 55 °F / 38 °F 50 % 8 mph - 24.72 in 0 in
      11/20/2020 75 °F / 53 °F 54 °F / 46 °F 60 % 15 mph - 24.81 in 0 in
      11/21/2020 72 °F / 58 °F 56 °F / 50 °F 72 % 9 mph - 24.81 in 0 in
      11/22/2020 76 °F / 57 °F 57 °F / 52 °F 69 % 7 mph - 24.73 in 0 in
      11/23/2020 75 °F / 60 °F 61 °F / 53 °F 72 % 14 mph - 24.71 in 0 in
      11/24/2020 82 °F / 55 °F 57 °F / 38 °F 51 % 16 mph - 24.69 in 0 in
      11/25/2020 79 °F / 48 °F 43 °F / 29 °F 43 % 7 mph - 24.75 in 0 in
      11/26/2020 79 °F / 50 °F 51 °F / 28 °F 46 % 9 mph - 24.79 in 0 in
      11/27/2020 83 °F / 45 °F 53 °F / 30 °F 39 % 12 mph - 24.85 in 0 in
      11/28/2020 69 °F / 60 °F 53 °F / 51 °F 65 % 15 mph - 24.84 in 0 in
      11/29/2020 79 °F / 56 °F 55 °F / 37 °F 51 % 9 mph - 24.77 in 0 in
      11/30/2020 81 °F / 53 °F 57 °F / 38 °F 51 % 10 mph - 24.72 in 0 in
      essentialaccessibility.com
      We recognize our responsibility to use data and technology for good. We may use or share your data with our data vendors. Take control of your data.
      Glossary